EDHK/KEL METAR and TAF weather

Enter ICAO airport designator
Station Type Date Time Source
EDHK METAR 2022/11/27 09:20 UTC NOAA

EDHK 270920Z 16008KT 8000 SCT003 04/04 Q1023


Station Type Date Time Source
EDHK Decoded METAR 2022/11/27 09:20 UTC NOAA

Kiel / Holtenau Civilian, Germany (EDHK) 54-23N 010-10E
Nov 27, 2022 - 04:20 AM EST / 2022.11.27 0920 UTC
Wind: from the SSE (160 degrees) at 9 MPH (8 KT):0
Visibility: 4 mile(s):0
Sky conditions: partly cloudy
Temperature: 39 F (4 C)
Dew Point: 39 F (4 C)
Relative Humidity: 100%
Pressure (altimeter): 30.21 in. Hg (1023 hPa)
ob: EDHK 270920Z 16008KT 8000 SCT003 04/04 Q1023
cycle: 9

Station Type Date Time Source
EDHK TAF 2013/08/11 06:39 UTC NOAA

TAF EDHK 110633Z 1106/1118 24005KT 9999 SCT030
BECMG 1106/1109 25010KT
TEMPO 1106/1118 27015G25KT 4500 SHRA BKN012CB

Example: see airport list